sensor_id;sensor_type;location;lat;lon;timestamp;P1;durP1;ratioP1;P2;durP2;ratioP2
43363;SDS011;40636;52.424;-1.948;2024-02-14T00:00:54;7.60;;;1.98;;
43363;SDS011;40636;52.424;-1.948;2024-02-14T00:03:22;6.75;;;2.15;;
43363;SDS011;40636;52.424;-1.948;2024-02-14T00:05:50;4.40;;;2.00;;
43363;SDS011;40636;52.424;-1.948;2024-02-14T00:08:18;6.85;;;2.80;;
43363;SDS011;40636;52.424;-1.948;2024-02-14T00:10:47;7.68;;;2.08;;
43363;SDS011;40636;52.424;-1.948;2024-02-14T00:13:15;4.45;;;2.20;;
43363;SDS011;40636;52.424;-1.948;2024-02-14T00:15:45;7.75;;;2.42;;
43363;SDS011;40636;52.424;-1.948;2024-02-14T00:18:13;7.93;;;2.22;;
43363;SDS011;40636;52.424;-1.948;2024-02-14T00:20:42;6.70;;;2.00;;
43363;SDS011;40636;52.424;-1.948;2024-02-14T00:23:09;9.05;;;2.75;;
43363;SDS011;40636;52.424;-1.948;2024-02-14T00:25:36;8.80;;;2.65;;
43363;SDS011;40636;52.424;-1.948;2024-02-14T00:28:03;9.45;;;2.97;;
43363;SDS011;40636;52.424;-1.948;2024-02-14T00:30:32;10.82;;;3.08;;
43363;SDS011;40636;52.424;-1.948;2024-02-14T00:32:59;12.77;;;3.58;;
43363;SDS011;40636;52.424;-1.948;2024-02-14T00:35:26;8.38;;;2.97;;
43363;SDS011;40636;52.424;-1.948;2024-02-14T00:37:53;11.65;;;3.40;;
43363;SDS011;40636;52.424;-1.948;2024-02-14T00:40:20;12.13;;;4.63;;
43363;SDS011;40636;52.424;-1.948;2024-02-14T00:42:46;17.10;;;3.60;;
43363;SDS011;40636;52.424;-1.948;2024-02-14T00:45:13;11.82;;;3.92;;
43363;SDS011;40636;52.424;-1.948;2024-02-14T00:47:41;14.80;;;3.95;;
43363;SDS011;40636;52.424;-1.948;2024-02-14T00:50:08;9.40;;;3.47;;
43363;SDS011;40636;52.424;-1.948;2024-02-14T00:52:35;10.38;;;3.33;;
43363;SDS011;40636;52.424;-1.948;2024-02-14T00:55:02;9.57;;;3.50;;
43363;SDS011;40636;52.424;-1.948;2024-02-14T00:57:30;10.85;;;3.45;;
43363;SDS011;40636;52.424;-1.948;2024-02-14T00:59:59;7.57;;;2.95;;
43363;SDS011;40636;52.424;-1.948;2024-02-14T01:02:26;12.77;;;3.28;;
43363;SDS011;40636;52.424;-1.948;2024-02-14T01:04:53;16.70;;;4.05;;
43363;SDS011;40636;52.424;-1.948;2024-02-14T01:07:20;10.30;;;3.38;;
43363;SDS011;40636;52.424;-1.948;2024-02-14T01:09:47;12.30;;;3.45;;
43363;SDS011;40636;52.424;-1.948;2024-02-14T01:12:14;7.53;;;2.80;;
43363;SDS011;40636;52.424;-1.948;2024-02-14T01:14:41;9.43;;;2.92;;
43363;SDS011;40636;52.424;-1.948;2024-02-14T01:17:08;6.30;;;2.63;;
43363;SDS011;40636;52.424;-1.948;2024-02-14T01:19:35;10.30;;;2.70;;
43363;SDS011;40636;52.424;-1.948;2024-02-14T01:22:02;8.68;;;2.88;;
43363;SDS011;40636;52.424;-1.948;2024-02-14T01:24:29;9.52;;;2.78;;
43363;SDS011;40636;52.424;-1.948;2024-02-14T01:26:56;10.07;;;2.80;;
43363;SDS011;40636;52.424;-1.948;2024-02-14T01:29:24;7.30;;;2.50;;
43363;SDS011;40636;52.424;-1.948;2024-02-14T01:31:50;10.55;;;2.85;;
43363;SDS011;40636;52.424;-1.948;2024-02-14T01:34:17;12.50;;;3.17;;
43363;SDS011;40636;52.424;-1.948;2024-02-14T01:36:45;12.15;;;3.40;;
43363;SDS011;40636;52.424;-1.948;2024-02-14T01:39:12;11.32;;;3.20;;
43363;SDS011;40636;52.424;-1.948;2024-02-14T01:41:45;7.60;;;2.83;;
43363;SDS011;40636;52.424;-1.948;2024-02-14T01:44:16;10.57;;;3.40;;
43363;SDS011;40636;52.424;-1.948;2024-02-14T01:46:44;7.82;;;3.17;;
43363;SDS011;40636;52.424;-1.948;2024-02-14T01:49:11;10.43;;;3.58;;
43363;SDS011;40636;52.424;-1.948;2024-02-14T01:51:39;9.00;;;3.47;;
43363;SDS011;40636;52.424;-1.948;2024-02-14T01:54:11;9.73;;;3.78;;
43363;SDS011;40636;52.424;-1.948;2024-02-14T01:56:41;9.20;;;3.83;;
43363;SDS011;40636;52.424;-1.948;2024-02-14T01:59:09;11.35;;;3.63;;
43363;SDS011;40636;52.424;-1.948;2024-02-14T02:01:36;10.82;;;4.18;;
43363;SDS011;40636;52.424;-1.948;2024-02-14T02:04:03;9.75;;;3.03;;
43363;SDS011;40636;52.424;-1.948;2024-02-14T02:06:31;5.72;;;3.17;;
43363;SDS011;40636;52.424;-1.948;2024-02-14T02:08:59;8.43;;;3.33;;
43363;SDS011;40636;52.424;-1.948;2024-02-14T02:11:27;5.03;;;2.92;;
43363;SDS011;40636;52.424;-1.948;2024-02-14T02:13:54;8.73;;;3.03;;
43363;SDS011;40636;52.424;-1.948;2024-02-14T02:16:21;4.90;;;2.60;;
43363;SDS011;40636;52.424;-1.948;2024-02-14T02:18:48;4.18;;;2.80;;
43363;SDS011;40636;52.424;-1.948;2024-02-14T02:21:16;7.90;;;2.90;;
43363;SDS011;40636;52.424;-1.948;2024-02-14T02:23:46;3.72;;;2.78;;
43363;SDS011;40636;52.424;-1.948;2024-02-14T02:26:14;5.25;;;2.55;;
43363;SDS011;40636;52.424;-1.948;2024-02-14T02:28:41;5.30;;;2.72;;
43363;SDS011;40636;52.424;-1.948;2024-02-14T02:31:09;4.05;;;2.50;;
43363;SDS011;40636;52.424;-1.948;2024-02-14T02:33:37;7.47;;;3.42;;
43363;SDS011;40636;52.424;-1.948;2024-02-14T02:36:04;4.68;;;2.45;;
43363;SDS011;40636;52.424;-1.948;2024-02-14T02:38:33;4.18;;;2.72;;
43363;SDS011;40636;52.424;-1.948;2024-02-14T02:41:00;3.38;;;2.63;;
43363;SDS011;40636;52.424;-1.948;2024-02-14T02:43:27;6.55;;;2.63;;
43363;SDS011;40636;52.424;-1.948;2024-02-14T02:45:54;3.88;;;2.60;;
43363;SDS011;40636;52.424;-1.948;2024-02-14T02:48:21;4.65;;;2.75;;
43363;SDS011;40636;52.424;-1.948;2024-02-14T02:50:50;4.78;;;3.10;;
43363;SDS011;40636;52.424;-1.948;2024-02-14T02:53:18;7.30;;;3.45;;
43363;SDS011;40636;52.424;-1.948;2024-02-14T02:55:45;5.13;;;3.22;;
43363;SDS011;40636;52.424;-1.948;2024-02-14T02:58:12;10.25;;;3.45;;
43363;SDS011;40636;52.424;-1.948;2024-02-14T03:00:40;6.63;;;3.35;;
43363;SDS011;40636;52.424;-1.948;2024-02-14T03:03:09;5.82;;;3.08;;
43363;SDS011;40636;52.424;-1.948;2024-02-14T03:05:37;6.90;;;3.88;;
43363;SDS011;40636;52.424;-1.948;2024-02-14T03:08:05;10.32;;;4.50;;
43363;SDS011;40636;52.424;-1.948;2024-02-14T03:10:34;7.10;;;3.78;;
43363;SDS011;40636;52.424;-1.948;2024-02-14T03:13:00;6.00;;;3.20;;
43363;SDS011;40636;52.424;-1.948;2024-02-14T03:15:27;6.65;;;2.60;;
43363;SDS011;40636;52.424;-1.948;2024-02-14T03:17:55;5.18;;;2.30;;
43363;SDS011;40636;52.424;-1.948;2024-02-14T03:20:22;5.55;;;2.17;;
43363;SDS011;40636;52.424;-1.948;2024-02-14T03:22:49;5.10;;;1.95;;
43363;SDS011;40636;52.424;-1.948;2024-02-14T03:25:17;5.05;;;1.98;;
43363;SDS011;40636;52.424;-1.948;2024-02-14T03:27:44;4.35;;;2.00;;
43363;SDS011;40636;52.424;-1.948;2024-02-14T03:30:14;4.88;;;2.40;;
43363;SDS011;40636;52.424;-1.948;2024-02-14T03:32:43;4.22;;;2.72;;
43363;SDS011;40636;52.424;-1.948;2024-02-14T03:35:11;4.03;;;2.78;;
43363;SDS011;40636;52.424;-1.948;2024-02-14T03:37:40;5.30;;;2.97;;
43363;SDS011;40636;52.424;-1.948;2024-02-14T03:40:08;5.15;;;3.35;;
43363;SDS011;40636;52.424;-1.948;2024-02-14T03:42:36;4.85;;;3.08;;
43363;SDS011;40636;52.424;-1.948;2024-02-14T03:45:07;9.13;;;3.35;;
43363;SDS011;40636;52.424;-1.948;2024-02-14T03:47:35;6.10;;;2.80;;
43363;SDS011;40636;52.424;-1.948;2024-02-14T03:50:07;5.47;;;2.90;;
43363;SDS011;40636;52.424;-1.948;2024-02-14T03:52:35;4.50;;;2.60;;
43363;SDS011;40636;52.424;-1.948;2024-02-14T03:55:02;4.32;;;2.63;;
43363;SDS011;40636;52.424;-1.948;2024-02-14T03:57:29;7.07;;;2.70;;
43363;SDS011;40636;52.424;-1.948;2024-02-14T03:59:59;4.80;;;2.35;;
43363;SDS011;40636;52.424;-1.948;2024-02-14T04:02:30;5.25;;;2.30;;
43363;SDS011;40636;52.424;-1.948;2024-02-14T04:04:58;5.45;;;2.30;;
43363;SDS011;40636;52.424;-1.948;2024-02-14T04:07:26;3.97;;;2.33;;
43363;SDS011;40636;52.424;-1.948;2024-02-14T04:09:53;4.28;;;2.95;;
43363;SDS011;40636;52.424;-1.948;2024-02-14T04:12:20;6.20;;;2.60;;
43363;SDS011;40636;52.424;-1.948;2024-02-14T04:14:47;5.20;;;2.08;;
43363;SDS011;40636;52.424;-1.948;2024-02-14T04:17:14;5.60;;;2.83;;
43363;SDS011;40636;52.424;-1.948;2024-02-14T04:19:41;7.60;;;2.50;;
43363;SDS011;40636;52.424;-1.948;2024-02-14T04:22:08;6.00;;;2.30;;
43363;SDS011;40636;52.424;-1.948;2024-02-14T04:24:35;4.55;;;2.35;;
43363;SDS011;40636;52.424;-1.948;2024-02-14T04:27:03;4.78;;;2.47;;
43363;SDS011;40636;52.424;-1.948;2024-02-14T04:29:31;3.95;;;2.03;;
43363;SDS011;40636;52.424;-1.948;2024-02-14T04:32:00;4.57;;;2.20;;
43363;SDS011;40636;52.424;-1.948;2024-02-14T04:34:28;7.90;;;2.45;;
43363;SDS011;40636;52.424;-1.948;2024-02-14T04:36:56;4.47;;;2.10;;
43363;SDS011;40636;52.424;-1.948;2024-02-14T04:39:24;6.90;;;2.13;;
43363;SDS011;40636;52.424;-1.948;2024-02-14T04:41:51;6.07;;;2.00;;
43363;SDS011;40636;52.424;-1.948;2024-02-14T04:44:31;6.88;;;2.30;;
43363;SDS011;40636;52.424;-1.948;2024-02-14T04:46:58;5.20;;;2.28;;
43363;SDS011;40636;52.424;-1.948;2024-02-14T04:49:26;5.47;;;2.30;;
43363;SDS011;40636;52.424;-1.948;2024-02-14T04:51:55;4.00;;;2.03;;
43363;SDS011;40636;52.424;-1.948;2024-02-14T04:54:22;4.47;;;1.88;;
43363;SDS011;40636;52.424;-1.948;2024-02-14T04:56:49;6.78;;;2.13;;
43363;SDS011;40636;52.424;-1.948;2024-02-14T04:59:22;4.75;;;2.17;;
43363;SDS011;40636;52.424;-1.948;2024-02-14T05:01:49;6.95;;;2.50;;
43363;SDS011;40636;52.424;-1.948;2024-02-14T05:04:18;7.47;;;2.92;;
43363;SDS011;40636;52.424;-1.948;2024-02-14T05:06:44;5.53;;;2.50;;
43363;SDS011;40636;52.424;-1.948;2024-02-14T05:09:12;5.22;;;2.35;;
43363;SDS011;40636;52.424;-1.948;2024-02-14T05:11:41;5.55;;;2.33;;
43363;SDS011;40636;52.424;-1.948;2024-02-14T05:14:08;8.00;;;2.50;;
43363;SDS011;40636;52.424;-1.948;2024-02-14T05:16:35;5.93;;;2.50;;
43363;SDS011;40636;52.424;-1.948;2024-02-14T05:19:02;6.20;;;3.03;;
43363;SDS011;40636;52.424;-1.948;2024-02-14T05:21:29;10.23;;;2.83;;
43363;SDS011;40636;52.424;-1.948;2024-02-14T05:23:56;2.80;;;2.50;;
43363;SDS011;40636;52.424;-1.948;2024-02-14T05:26:23;3.10;;;2.13;;
43363;SDS011;40636;52.424;-1.948;2024-02-14T05:28:50;4.53;;;2.60;;
43363;SDS011;40636;52.424;-1.948;2024-02-14T05:31:17;5.10;;;2.67;;
43363;SDS011;40636;52.424;-1.948;2024-02-14T05:33:44;8.20;;;2.65;;
43363;SDS011;40636;52.424;-1.948;2024-02-14T05:36:11;4.00;;;2.78;;
43363;SDS011;40636;52.424;-1.948;2024-02-14T05:38:38;6.18;;;3.00;;
43363;SDS011;40636;52.424;-1.948;2024-02-14T05:41:04;5.85;;;3.42;;
43363;SDS011;40636;52.424;-1.948;2024-02-14T05:43:34;7.45;;;3.53;;
43363;SDS011;40636;52.424;-1.948;2024-02-14T05:46:01;8.05;;;3.15;;
43363;SDS011;40636;52.424;-1.948;2024-02-14T05:48:28;7.05;;;3.40;;
43363;SDS011;40636;52.424;-1.948;2024-02-14T05:50:55;5.93;;;3.30;;
43363;SDS011;40636;52.424;-1.948;2024-02-14T05:53:22;7.25;;;3.17;;
43363;SDS011;40636;52.424;-1.948;2024-02-14T05:55:49;4.90;;;2.90;;
43363;SDS011;40636;52.424;-1.948;2024-02-14T05:58:16;3.92;;;2.55;;
43363;SDS011;40636;52.424;-1.948;2024-02-14T06:00:43;4.72;;;2.67;;
43363;SDS011;40636;52.424;-1.948;2024-02-14T06:03:10;6.00;;;3.13;;
43363;SDS011;40636;52.424;-1.948;2024-02-14T06:05:37;5.15;;;2.85;;
43363;SDS011;40636;52.424;-1.948;2024-02-14T06:08:04;6.60;;;3.38;;
43363;SDS011;40636;52.424;-1.948;2024-02-14T06:10:31;5.05;;;2.78;;
43363;SDS011;40636;52.424;-1.948;2024-02-14T06:13:00;5.93;;;2.80;;
43363;SDS011;40636;52.424;-1.948;2024-02-14T06:15:27;6.97;;;2.70;;
43363;SDS011;40636;52.424;-1.948;2024-02-14T06:17:54;5.75;;;3.22;;
43363;SDS011;40636;52.424;-1.948;2024-02-14T06:20:21;6.68;;;3.05;;
43363;SDS011;40636;52.424;-1.948;2024-02-14T06:22:49;3.55;;;2.63;;
43363;SDS011;40636;52.424;-1.948;2024-02-14T06:25:29;3.75;;;2.15;;
43363;SDS011;40636;52.424;-1.948;2024-02-14T06:27:56;5.40;;;2.90;;
43363;SDS011;40636;52.424;-1.948;2024-02-14T06:30:23;5.47;;;2.95;;
43363;SDS011;40636;52.424;-1.948;2024-02-14T06:32:54;5.00;;;2.30;;
43363;SDS011;40636;52.424;-1.948;2024-02-14T06:35:23;5.82;;;2.42;;
43363;SDS011;40636;52.424;-1.948;2024-02-14T06:37:50;3.72;;;2.33;;
43363;SDS011;40636;52.424;-1.948;2024-02-14T06:40:28;3.85;;;2.65;;
43363;SDS011;40636;52.424;-1.948;2024-02-14T06:42:56;3.47;;;2.60;;
43363;SDS011;40636;52.424;-1.948;2024-02-14T06:45:25;4.47;;;2.95;;
43363;SDS011;40636;52.424;-1.948;2024-02-14T06:47:54;4.88;;;2.60;;
43363;SDS011;40636;52.424;-1.948;2024-02-14T06:50:21;4.05;;;2.78;;
43363;SDS011;40636;52.424;-1.948;2024-02-14T06:52:48;5.40;;;2.95;;
43363;SDS011;40636;52.424;-1.948;2024-02-14T06:55:15;5.25;;;2.70;;
43363;SDS011;40636;52.424;-1.948;2024-02-14T06:57:42;3.70;;;2.22;;
43363;SDS011;40636;52.424;-1.948;2024-02-14T07:00:09;4.82;;;2.70;;
43363;SDS011;40636;52.424;-1.948;2024-02-14T07:02:37;3.92;;;2.25;;
43363;SDS011;40636;52.424;-1.948;2024-02-14T07:05:04;4.88;;;2.30;;
43363;SDS011;40636;52.424;-1.948;2024-02-14T07:07:33;3.28;;;2.55;;
43363;SDS011;40636;52.424;-1.948;2024-02-14T07:10:00;4.50;;;3.17;;
43363;SDS011;40636;52.424;-1.948;2024-02-14T07:12:28;7.05;;;3.63;;
43363;SDS011;40636;52.424;-1.948;2024-02-14T07:14:56;3.10;;;2.60;;
43363;SDS011;40636;52.424;-1.948;2024-02-14T07:17:24;7.28;;;2.90;;
43363;SDS011;40636;52.424;-1.948;2024-02-14T07:19:51;4.20;;;2.47;;
43363;SDS011;40636;52.424;-1.948;2024-02-14T07:22:18;5.60;;;3.40;;
43363;SDS011;40636;52.424;-1.948;2024-02-14T07:24:48;5.35;;;3.00;;
43363;SDS011;40636;52.424;-1.948;2024-02-14T07:27:15;6.40;;;3.38;;
43363;SDS011;40636;52.424;-1.948;2024-02-14T07:29:43;8.50;;;3.80;;
43363;SDS011;40636;52.424;-1.948;2024-02-14T07:32:11;4.28;;;3.33;;
43363;SDS011;40636;52.424;-1.948;2024-02-14T07:34:38;4.88;;;3.45;;
43363;SDS011;40636;52.424;-1.948;2024-02-14T07:37:08;6.22;;;3.90;;
43363;SDS011;40636;52.424;-1.948;2024-02-14T07:39:35;10.38;;;4.10;;
43363;SDS011;40636;52.424;-1.948;2024-02-14T07:42:02;7.60;;;3.95;;
43363;SDS011;40636;52.424;-1.948;2024-02-14T07:44:30;6.15;;;4.00;;
43363;SDS011;40636;52.424;-1.948;2024-02-14T07:46:57;7.40;;;3.95;;
43363;SDS011;40636;52.424;-1.948;2024-02-14T07:49:29;5.85;;;3.72;;
43363;SDS011;40636;52.424;-1.948;2024-02-14T07:51:56;6.07;;;3.72;;
43363;SDS011;40636;52.424;-1.948;2024-02-14T07:54:23;6.78;;;4.43;;
43363;SDS011;40636;52.424;-1.948;2024-02-14T07:56:50;4.78;;;3.78;;
43363;SDS011;40636;52.424;-1.948;2024-02-14T07:59:17;7.68;;;4.45;;
43363;SDS011;40636;52.424;-1.948;2024-02-14T08:01:44;8.20;;;4.00;;
43363;SDS011;40636;52.424;-1.948;2024-02-14T08:04:11;7.72;;;4.32;;
43363;SDS011;40636;52.424;-1.948;2024-02-14T08:06:37;6.07;;;3.60;;
43363;SDS011;40636;52.424;-1.948;2024-02-14T08:09:04;5.47;;;4.15;;
43363;SDS011;40636;52.424;-1.948;2024-02-14T08:11:36;8.20;;;4.25;;
43363;SDS011;40636;52.424;-1.948;2024-02-14T08:14:03;5.68;;;3.67;;
43363;SDS011;40636;52.424;-1.948;2024-02-14T08:16:31;12.55;;;5.68;;
43363;SDS011;40636;52.424;-1.948;2024-02-14T08:18:58;7.55;;;4.50;;
43363;SDS011;40636;52.424;-1.948;2024-02-14T08:21:26;7.68;;;4.07;;
43363;SDS011;40636;52.424;-1.948;2024-02-14T08:23:57;5.75;;;4.05;;
43363;SDS011;40636;52.424;-1.948;2024-02-14T08:26:27;7.55;;;4.07;;
43363;SDS011;40636;52.424;-1.948;2024-02-14T08:28:54;7.63;;;4.03;;
43363;SDS011;40636;52.424;-1.948;2024-02-14T08:31:21;7.15;;;4.03;;
43363;SDS011;40636;52.424;-1.948;2024-02-14T08:33:49;6.95;;;3.88;;
43363;SDS011;40636;52.424;-1.948;2024-02-14T08:36:16;6.70;;;3.85;;
43363;SDS011;40636;52.424;-1.948;2024-02-14T08:38:46;4.35;;;2.80;;
43363;SDS011;40636;52.424;-1.948;2024-02-14T08:41:13;7.70;;;3.65;;
43363;SDS011;40636;52.424;-1.948;2024-02-14T08:43:45;4.43;;;3.28;;
43363;SDS011;40636;52.424;-1.948;2024-02-14T08:46:13;9.50;;;3.83;;
43363;SDS011;40636;52.424;-1.948;2024-02-14T08:48:42;8.05;;;3.72;;
43363;SDS011;40636;52.424;-1.948;2024-02-14T08:51:15;6.57;;;3.80;;
43363;SDS011;40636;52.424;-1.948;2024-02-14T08:53:43;6.82;;;3.42;;
43363;SDS011;40636;52.424;-1.948;2024-02-14T08:56:12;4.78;;;3.10;;
43363;SDS011;40636;52.424;-1.948;2024-02-14T08:58:39;8.05;;;3.03;;
43363;SDS011;40636;52.424;-1.948;2024-02-14T09:01:06;5.78;;;3.40;;
43363;SDS011;40636;52.424;-1.948;2024-02-14T09:03:43;7.80;;;3.88;;
43363;SDS011;40636;52.424;-1.948;2024-02-14T09:06:16;3.95;;;3.20;;
43363;SDS011;40636;52.424;-1.948;2024-02-14T09:08:48;5.07;;;2.88;;
43363;SDS011;40636;52.424;-1.948;2024-02-14T09:11:18;4.85;;;2.85;;
43363;SDS011;40636;52.424;-1.948;2024-02-14T09:13:46;3.88;;;2.58;;
43363;SDS011;40636;52.424;-1.948;2024-02-14T09:16:15;3.83;;;2.33;;
43363;SDS011;40636;52.424;-1.948;2024-02-14T09:18:44;4.47;;;2.78;;
43363;SDS011;40636;52.424;-1.948;2024-02-14T09:21:13;5.57;;;2.83;;
43363;SDS011;40636;52.424;-1.948;2024-02-14T09:23:44;2.97;;;2.22;;
43363;SDS011;40636;52.424;-1.948;2024-02-14T09:26:13;5.15;;;3.05;;
43363;SDS011;40636;52.424;-1.948;2024-02-14T09:28:43;4.50;;;2.63;;
43363;SDS011;40636;52.424;-1.948;2024-02-14T09:31:10;3.38;;;2.28;;
43363;SDS011;40636;52.424;-1.948;2024-02-14T09:33:38;2.60;;;2.35;;
43363;SDS011;40636;52.424;-1.948;2024-02-14T09:36:07;2.15;;;1.90;;
43363;SDS011;40636;52.424;-1.948;2024-02-14T09:38:35;2.80;;;1.83;;
43363;SDS011;40636;52.424;-1.948;2024-02-14T09:41:06;3.00;;;1.88;;
43363;SDS011;40636;52.424;-1.948;2024-02-14T09:43:44;2.63;;;1.65;;
43363;SDS011;40636;52.424;-1.948;2024-02-14T09:46:12;1.60;;;1.40;;
43363;SDS011;40636;52.424;-1.948;2024-02-14T09:48:44;1.33;;;1.23;;
43363;SDS011;40636;52.424;-1.948;2024-02-14T09:51:12;1.83;;;1.67;;
43363;SDS011;40636;52.424;-1.948;2024-02-14T09:53:40;1.50;;;1.17;;
43363;SDS011;40636;52.424;-1.948;2024-02-14T09:56:10;1.58;;;1.20;;
43363;SDS011;40636;52.424;-1.948;2024-02-14T09:58:42;1.00;;;1.00;;
43363;SDS011;40636;52.424;-1.948;2024-02-14T10:01:09;1.20;;;1.10;;
43363;SDS011;40636;52.424;-1.948;2024-02-14T10:03:36;1.98;;;1.13;;
43363;SDS011;40636;52.424;-1.948;2024-02-14T10:06:03;1.40;;;1.30;;
43363;SDS011;40636;52.424;-1.948;2024-02-14T10:08:31;2.08;;;1.55;;
43363;SDS011;40636;52.424;-1.948;2024-02-14T10:10:59;1.73;;;1.40;;
43363;SDS011;40636;52.424;-1.948;2024-02-14T10:13:26;1.55;;;1.45;;
43363;SDS011;40636;52.424;-1.948;2024-02-14T10:15:55;1.90;;;1.50;;
43363;SDS011;40636;52.424;-1.948;2024-02-14T10:18:22;1.98;;;1.20;;
43363;SDS011;40636;52.424;-1.948;2024-02-14T10:20:56;1.92;;;1.40;;
43363;SDS011;40636;52.424;-1.948;2024-02-14T10:23:23;1.65;;;1.27;;
43363;SDS011;40636;52.424;-1.948;2024-02-14T10:25:54;2.78;;;1.70;;
43363;SDS011;40636;52.424;-1.948;2024-02-14T10:28:22;1.50;;;1.40;;
43363;SDS011;40636;52.424;-1.948;2024-02-14T10:31:01;1.70;;;1.60;;
43363;SDS011;40636;52.424;-1.948;2024-02-14T10:33:28;1.27;;;1.17;;
43363;SDS011;40636;52.424;-1.948;2024-02-14T10:35:57;1.77;;;1.33;;
43363;SDS011;40636;52.424;-1.948;2024-02-14T10:38:30;1.92;;;1.27;;
43363;SDS011;40636;52.424;-1.948;2024-02-14T10:41:02;1.58;;;1.35;;
43363;SDS011;40636;52.424;-1.948;2024-02-14T10:43:31;1.73;;;1.30;;
43363;SDS011;40636;52.424;-1.948;2024-02-14T10:46:04;2.30;;;1.55;;
43363;SDS011;40636;52.424;-1.948;2024-02-14T10:48:35;1.55;;;1.40;;
43363;SDS011;40636;52.424;-1.948;2024-02-14T10:51:05;2.17;;;1.55;;
43363;SDS011;40636;52.424;-1.948;2024-02-14T10:53:35;2.85;;;1.50;;
43363;SDS011;40636;52.424;-1.948;2024-02-14T10:56:05;2.17;;;1.55;;
43363;SDS011;40636;52.424;-1.948;2024-02-14T10:58:33;2.38;;;1.65;;
43363;SDS011;40636;52.424;-1.948;2024-02-14T11:01:01;2.45;;;1.60;;
43363;SDS011;40636;52.424;-1.948;2024-02-14T11:03:28;2.33;;;1.73;;
43363;SDS011;40636;52.424;-1.948;2024-02-14T11:06:00;4.05;;;1.85;;
43363;SDS011;40636;52.424;-1.948;2024-02-14T11:08:31;3.25;;;1.85;;
43363;SDS011;40636;52.424;-1.948;2024-02-14T11:11:00;1.77;;;1.67;;
43363;SDS011;40636;52.424;-1.948;2024-02-14T11:13:28;4.05;;;1.90;;
43363;SDS011;40636;52.424;-1.948;2024-02-14T11:16:02;1.67;;;1.40;;
43363;SDS011;40636;52.424;-1.948;2024-02-14T11:18:35;2.17;;;1.77;;
43363;SDS011;40636;52.424;-1.948;2024-02-14T11:21:03;2.10;;;1.33;;
43363;SDS011;40636;52.424;-1.948;2024-02-14T11:23:31;1.88;;;1.58;;
43363;SDS011;40636;52.424;-1.948;2024-02-14T11:26:02;1.20;;;1.10;;
43363;SDS011;40636;52.424;-1.948;2024-02-14T11:28:31;3.17;;;1.50;;
43363;SDS011;40636;52.424;-1.948;2024-02-14T11:31:01;3.67;;;0.93;;
43363;SDS011;40636;52.424;-1.948;2024-02-14T11:33:30;2.05;;;1.13;;
43363;SDS011;40636;52.424;-1.948;2024-02-14T11:35:58;1.30;;;1.17;;
43363;SDS011;40636;52.424;-1.948;2024-02-14T11:38:34;3.13;;;1.30;;
43363;SDS011;40636;52.424;-1.948;2024-02-14T11:41:01;3.15;;;1.52;;
43363;SDS011;40636;52.424;-1.948;2024-02-14T11:43:33;2.35;;;1.10;;
43363;SDS011;40636;52.424;-1.948;2024-02-14T11:46:01;3.38;;;1.30;;
43363;SDS011;40636;52.424;-1.948;2024-02-14T11:48:32;2.03;;;1.55;;
43363;SDS011;40636;52.424;-1.948;2024-02-14T11:50:59;2.50;;;1.30;;
43363;SDS011;40636;52.424;-1.948;2024-02-14T11:53:27;3.17;;;1.40;;
43363;SDS011;40636;52.424;-1.948;2024-02-14T11:55:55;2.50;;;1.20;;
43363;SDS011;40636;52.424;-1.948;2024-02-14T11:58:23;2.45;;;1.42;;
43363;SDS011;40636;52.424;-1.948;2024-02-14T12:00:51;6.70;;;1.40;;
43363;SDS011;40636;52.424;-1.948;2024-02-14T12:03:18;4.07;;;1.20;;
43363;SDS011;40636;52.424;-1.948;2024-02-14T12:05:48;2.10;;;1.27;;
43363;SDS011;40636;52.424;-1.948;2024-02-14T12:08:17;2.05;;;1.50;;
43363;SDS011;40636;52.424;-1.948;2024-02-14T12:10:46;2.28;;;1.10;;
43363;SDS011;40636;52.424;-1.948;2024-02-14T12:13:17;2.00;;;1.33;;
43363;SDS011;40636;52.424;-1.948;2024-02-14T12:15:47;2.80;;;1.40;;
43363;SDS011;40636;52.424;-1.948;2024-02-14T12:18:16;3.55;;;1.95;;
43363;SDS011;40636;52.424;-1.948;2024-02-14T12:20:47;2.13;;;1.30;;
43363;SDS011;40636;52.424;-1.948;2024-02-14T12:23:22;4.28;;;1.60;;
43363;SDS011;40636;52.424;-1.948;2024-02-14T12:25:53;2.83;;;1.13;;
43363;SDS011;40636;52.424;-1.948;2024-02-14T12:28:29;2.85;;;1.45;;
43363;SDS011;40636;52.424;-1.948;2024-02-14T12:30:58;2.65;;;1.38;;
43363;SDS011;40636;52.424;-1.948;2024-02-14T12:33:27;3.28;;;1.40;;
43363;SDS011;40636;52.424;-1.948;2024-02-14T12:35:57;2.72;;;1.65;;
43363;SDS011;40636;52.424;-1.948;2024-02-14T12:38:26;5.85;;;1.50;;
43363;SDS011;40636;52.424;-1.948;2024-02-14T12:40:55;3.58;;;1.10;;
43363;SDS011;40636;52.424;-1.948;2024-02-14T12:43:24;3.53;;;1.75;;
43363;SDS011;40636;52.424;-1.948;2024-02-14T12:45:52;3.25;;;1.40;;
43363;SDS011;40636;52.424;-1.948;2024-02-14T12:48:22;2.78;;;1.40;;
43363;SDS011;40636;52.424;-1.948;2024-02-14T12:53:25;2.88;;;1.30;;
43363;SDS011;40636;52.424;-1.948;2024-02-14T12:55:51;1.60;;;1.10;;
43363;SDS011;40636;52.424;-1.948;2024-02-14T12:58:18;4.75;;;1.63;;
43363;SDS011;40636;52.424;-1.948;2024-02-14T13:00:46;2.47;;;1.48;;
43363;SDS011;40636;52.424;-1.948;2024-02-14T13:03:15;4.28;;;2.65;;
43363;SDS011;40636;52.424;-1.948;2024-02-14T13:05:44;4.00;;;1.85;;
43363;SDS011;40636;52.424;-1.948;2024-02-14T13:08:11;3.97;;;1.70;;
43363;SDS011;40636;52.424;-1.948;2024-02-14T13:10:38;4.93;;;2.10;;
43363;SDS011;40636;52.424;-1.948;2024-02-14T13:13:05;6.00;;;2.05;;
43363;SDS011;40636;52.424;-1.948;2024-02-14T13:15:33;5.45;;;2.10;;
43363;SDS011;40636;52.424;-1.948;2024-02-14T13:18:01;5.40;;;2.25;;
43363;SDS011;40636;52.424;-1.948;2024-02-14T13:20:30;5.38;;;2.05;;
43363;SDS011;40636;52.424;-1.948;2024-02-14T13:22:58;5.97;;;2.20;;
43363;SDS011;40636;52.424;-1.948;2024-02-14T13:25:25;6.95;;;2.47;;
43363;SDS011;40636;52.424;-1.948;2024-02-14T13:27:52;6.85;;;2.22;;
43363;SDS011;40636;52.424;-1.948;2024-02-14T13:30:21;4.32;;;2.00;;
43363;SDS011;40636;52.424;-1.948;2024-02-14T13:32:49;6.20;;;2.15;;
43363;SDS011;40636;52.424;-1.948;2024-02-14T13:35:17;6.13;;;2.28;;
43363;SDS011;40636;52.424;-1.948;2024-02-14T13:37:44;5.57;;;2.10;;
43363;SDS011;40636;52.424;-1.948;2024-02-14T13:40:11;8.00;;;2.20;;
43363;SDS011;40636;52.424;-1.948;2024-02-14T13:42:38;5.35;;;2.47;;
43363;SDS011;40636;52.424;-1.948;2024-02-14T13:45:06;6.53;;;2.15;;
43363;SDS011;40636;52.424;-1.948;2024-02-14T13:47:37;4.35;;;1.98;;
43363;SDS011;40636;52.424;-1.948;2024-02-14T13:50:13;6.63;;;2.38;;
43363;SDS011;40636;52.424;-1.948;2024-02-14T13:52:40;7.50;;;2.38;;
43363;SDS011;40636;52.424;-1.948;2024-02-14T13:55:09;5.40;;;2.40;;
43363;SDS011;40636;52.424;-1.948;2024-02-14T13:57:37;8.13;;;2.97;;
43363;SDS011;40636;52.424;-1.948;2024-02-14T14:00:07;7.93;;;3.15;;
43363;SDS011;40636;52.424;-1.948;2024-02-14T14:02:37;5.13;;;2.38;;
43363;SDS011;40636;52.424;-1.948;2024-02-14T14:05:11;6.28;;;2.85;;
43363;SDS011;40636;52.424;-1.948;2024-02-14T14:07:44;7.03;;;2.65;;
43363;SDS011;40636;52.424;-1.948;2024-02-14T14:10:24;6.70;;;2.28;;
43363;SDS011;40636;52.424;-1.948;2024-02-14T14:12:54;5.82;;;2.42;;
43363;SDS011;40636;52.424;-1.948;2024-02-14T14:15:22;8.80;;;2.35;;
43363;SDS011;40636;52.424;-1.948;2024-02-14T14:17:51;6.78;;;2.85;;
43363;SDS011;40636;52.424;-1.948;2024-02-14T14:20:20;6.90;;;1.95;;
43363;SDS011;40636;52.424;-1.948;2024-02-14T14:22:48;6.85;;;2.20;;
43363;SDS011;40636;52.424;-1.948;2024-02-14T14:25:18;7.40;;;2.55;;
43363;SDS011;40636;52.424;-1.948;2024-02-14T14:27:46;5.90;;;2.03;;
43363;SDS011;40636;52.424;-1.948;2024-02-14T14:30:14;9.23;;;2.67;;
43363;SDS011;40636;52.424;-1.948;2024-02-14T14:32:41;5.40;;;2.33;;
43363;SDS011;40636;52.424;-1.948;2024-02-14T14:35:08;4.97;;;2.53;;
43363;SDS011;40636;52.424;-1.948;2024-02-14T14:37:38;8.60;;;2.00;;
43363;SDS011;40636;52.424;-1.948;2024-02-14T14:40:05;8.18;;;2.30;;
43363;SDS011;40636;52.424;-1.948;2024-02-14T14:42:35;7.90;;;2.28;;